Nichioh Maru — JD3267 — position and weather

sailwx.info

Track history (hours):
 
Tides and Currents Weather Stations Pressure Air Temp Water Temp Dewpoint Dewpoint Depression Visibility Wind Speed Wind Dir Waves Ship Positions

Nichioh Maru

Last reported at 2015-Mar-28 18:09 UTC. Time now 2015-Mar-29 19:31 UTC.
Position N 34°57' E 139°26'.

Length 170 m; draft 6.5 m.

Type: Cargo ship. MMSI: 431003232.

Date/timePositionNaut miles runAvg speedWind from/ knotsBaromVisibWave heightAir tempDewpointWater temp
2015-Mar-28 18:09N 34°57' E 139°26'1219.7
2015-Mar-28 17:33N 35°04' E 139°37'1414.4
2015-Mar-28 16:33N 35°17' E 139°45'1313.3
2015-Mar-28 15:33N 35°30' E 139°47'1 1.2
2015-Mar-28 14:32N 35°30' E 139°46'0 0.0
2015-Mar-28 13:32N 35°30' E 139°46'0 0.0
2015-Mar-28 12:32N 35°30' E 139°46'0 0.0
2015-Mar-28 11:32N 35°30' E 139°46'0 0.0
2015-Mar-28 10:32N 35°30' E 139°46'0 0.0
2015-Mar-28 09:32N 35°30' E 139°46'0 0.0
2015-Mar-28 08:32N 35°30' E 139°46'0 0.0
2015-Mar-28 07:32N 35°30' E 139°46'0 0.0
2015-Mar-28 06:29N 35°30' E 139°46'0 0.0
2015-Mar-28 05:32N 35°30' E 139°46'0 0.0
2015-Mar-28 04:33N 35°30' E 139°46'5 5.0
2015-Mar-28 03:33N 35°25' E 139°45'8 8.5
2015-Mar-28 02:33N 35°19' E 139°39'0 0.0
2015-Mar-28 01:30N 35°19' E 139°39'0 0.0
2015-Mar-28 00:33N 35°19' E 139°39'0 0.0
2015-Mar-27 23:30N 35°19' E 139°39'0 0.0
2015-Mar-27 22:30N 35°19' E 139°39'5 4.9
2015-Mar-27 21:33N 35°18' E 139°45'1312.7
2015-Mar-27 20:33N 35°05' E 139°44'1312.5
2015-Mar-27 19:33N 34°54' E 139°37'8018.1
2015-Mar-27 15:08N 34°14' E 138°13'16116.5
2015-Mar-27 05:22N 34°06' E 134°59'1619.8
2015-Mar-27 04:33N 34°22' E 135°01'1818.5
2015-Mar-27 03:33N 34°36' E 135°16'5 5.5
2015-Mar-27 02:33N 34°41' E 135°13'0 0.0
2015-Mar-27 01:34N 34°41' E 135°13'0 0.0
2015-Mar-27 00:33N 34°41' E 135°13'0 0.0
2015-Mar-26 23:33N 34°41' E 135°13'2 1.7
2015-Mar-26 22:33N 34°40' E 135°15'3 3.0
2015-Mar-26 21:24N 34°36' E 135°16'0 0.0
2015-Mar-26 20:30N 34°36' E 135°16'0 0.0
2015-Mar-26 19:30N 34°36' E 135°16'0 0.0
2015-Mar-26 18:30N 34°36' E 135°16'0 0.0
2015-Mar-26 17:24N 34°36' E 135°16'0 0.0
2015-Mar-26 16:30N 34°36' E 135°16'0 0.0
2015-Mar-26 15:30N 34°36' E 135°16'0 0.1
2015-Mar-26 14:18N 34°36' E 135°16'0 0.0
2015-Mar-26 13:30N 34°36' E 135°16'0 0.0
2015-Mar-26 12:24N 34°36' E 135°16'0 0.0
2015-Mar-26 11:24N 34°36' E 135°16'0 0.0
2015-Mar-26 10:30N 34°36' E 135°16'0 0.1
2015-Mar-26 09:30N 34°36' E 135°16'8 8.8
2015-Mar-26 08:33N 34°35' E 135°06'2019.1
2015-Mar-26 07:31N 34°31' E 134°42'  
2015-Mar-23 07:32N 34°36' E 134°56'1414.4
2015-Mar-23 06:34N 34°37' E 135°13'4 3.9
2015-Mar-23 05:31N 34°41' E 135°13'0 0.0
2015-Mar-23 04:31N 34°41' E 135°13'0 0.0
2015-Mar-23 03:31N 34°41' E 135°13'0 0.0
2015-Mar-23 02:19N 34°41' E 135°13'0 0.0
2015-Mar-23 01:31N 34°41' E 135°13'0 0.0
2015-Mar-23 00:31N 34°41' E 135°13'0 0.0
2015-Mar-22 23:31N 34°41' E 135°13'2 2.4
2015-Mar-22 22:33N 34°39' E 135°16'1514.8
2015-Mar-22 21:33N 34°26' E 135°07'1616.4
2015-Mar-22 20:33N 34°11' E 134°59'1717.3
2015-Mar-22 19:33N 33°54' E 134°60'234 7.8
2015-Mar-21 13:33N 35°00' E 139°32'1414.3
2015-Mar-21 12:34N 35°10' E 139°45'1211.6
2015-Mar-21 11:33N 35°21' E 139°42'10 9.8
2015-Mar-21 10:33N 35°30' E 139°46'0 0.0
2015-Mar-21 09:33N 35°30' E 139°46'0 0.0
2015-Mar-21 08:33N 35°30' E 139°46'0 0.0
2015-Mar-21 07:33N 35°30' E 139°46'0 0.0
2015-Mar-21 06:33N 35°30' E 139°46'0 0.0
2015-Mar-21 05:33N 35°30' E 139°46'0 0.0
2015-Mar-21 04:33N 35°30' E 139°46'6 5.8
2015-Mar-21 03:33N 35°25' E 139°46'8 8.4
2015-Mar-21 02:33N 35°19' E 139°39'0 0.0
2015-Mar-21 01:31N 35°19' E 139°39'0 0.0
2015-Mar-21 00:25N 35°19' E 139°39'0 0.0
2015-Mar-20 23:31N 35°19' E 139°39'0 0.0
2015-Mar-20 22:31N 35°19' E 139°39'7 7.1
2015-Mar-20 21:33N 35°16' E 139°46'1413.6
2015-Mar-20 20:33N 35°03' E 139°41'1413.6
2015-Mar-20 19:33N 34°53' E 139°29'22916.4
2015-Mar-20 05:33N 33°59' E 134°59'2221.1
2015-Mar-20 04:32N 34°21' E 135°00'1919.4
2015-Mar-20 03:33N 34°35' E 135°15'6 5.3
2015-Mar-20 02:28N 34°41' E 135°13'0 0.0
2015-Mar-20 01:22N 34°41' E 135°13'0 0.0
2015-Mar-20 00:28N 34°41' E 135°13'0 0.0
2015-Mar-19 23:33N 34°41' E 135°13'2 2.1
2015-Mar-19 22:33N 34°39' E 135°16'3 2.8
2015-Mar-19 21:28N 34°37' E 135°17'0 0.1
2015-Mar-19 20:28N 34°37' E 135°17'0 0.0
2015-Mar-19 19:28N 34°37' E 135°17'0 0.0
2015-Mar-19 18:28N 34°37' E 135°17'0 0.0
2015-Mar-19 17:28N 34°37' E 135°17'0 0.0
2015-Mar-19 16:22N 34°37' E 135°17'0 0.1
2015-Mar-19 15:28N 34°37' E 135°17'0 0.0
2015-Mar-19 14:22N 34°37' E 135°17'0 0.0
2015-Mar-19 13:16N 34°37' E 135°17'0 0.0
2015-Mar-19 12:16N 34°37' E 135°17'0 0.1
2015-Mar-19 11:28N 34°37' E 135°17'5 5.9
2015-Mar-19 10:34N 34°35' E 135°11'1616.4
2015-Mar-19 09:33N 34°34' E 134°51'  
Track history (hours):
 
Tides and Currents Weather Stations Pressure Air Temp Water Temp Dewpoint Dewpoint Depression Visibility Wind Speed Wind Dir Waves Ship Positions

Nichioh Maru

Last reported at 2015-Mar-28 18:09 UTC. Time now 2015-Mar-29 19:31 UTC.
Position N 34°57' E 139°26'.

Length 170 m; draft 6.5 m.

Type: Cargo ship. MMSI: 431003232.

Date/timePositionNaut miles runAvg speedWind from/ knotsBaromVisibWave heightAir tempDewpointWater temp
2015-Mar-28 18:09N 34°57' E 139°26'1219.7
2015-Mar-28 17:33N 35°04' E 139°37'1414.4
2015-Mar-28 16:33N 35°17' E 139°45'1313.3
2015-Mar-28 15:33N 35°30' E 139°47'1 1.2
2015-Mar-28 14:32N 35°30' E 139°46'0 0.0
2015-Mar-28 13:32N 35°30' E 139°46'0 0.0
2015-Mar-28 12:32N 35°30' E 139°46'0 0.0
2015-Mar-28 11:32N 35°30' E 139°46'0 0.0
2015-Mar-28 10:32N 35°30' E 139°46'0 0.0
2015-Mar-28 09:32N 35°30' E 139°46'0 0.0
2015-Mar-28 08:32N 35°30' E 139°46'0 0.0
2015-Mar-28 07:32N 35°30' E 139°46'0 0.0
2015-Mar-28 06:29N 35°30' E 139°46'0 0.0
2015-Mar-28 05:32N 35°30' E 139°46'0 0.0
2015-Mar-28 04:33N 35°30' E 139°46'5 5.0
2015-Mar-28 03:33N 35°25' E 139°45'8 8.5
2015-Mar-28 02:33N 35°19' E 139°39'0 0.0
2015-Mar-28 01:30N 35°19' E 139°39'0 0.0
2015-Mar-28 00:33N 35°19' E 139°39'0 0.0
2015-Mar-27 23:30N 35°19' E 139°39'0 0.0
2015-Mar-27 22:30N 35°19' E 139°39'5 4.9
2015-Mar-27 21:33N 35°18' E 139°45'1312.7
2015-Mar-27 20:33N 35°05' E 139°44'1312.5
2015-Mar-27 19:33N 34°54' E 139°37'8018.1
2015-Mar-27 15:08N 34°14' E 138°13'16116.5
2015-Mar-27 05:22N 34°06' E 134°59'1619.8
2015-Mar-27 04:33N 34°22' E 135°01'1818.5
2015-Mar-27 03:33N 34°36' E 135°16'5 5.5
2015-Mar-27 02:33N 34°41' E 135°13'0 0.0
2015-Mar-27 01:34N 34°41' E 135°13'0 0.0
2015-Mar-27 00:33N 34°41' E 135°13'0 0.0
2015-Mar-26 23:33N 34°41' E 135°13'2 1.7
2015-Mar-26 22:33N 34°40' E 135°15'3 3.0
2015-Mar-26 21:24N 34°36' E 135°16'0 0.0
2015-Mar-26 20:30N 34°36' E 135°16'0 0.0
2015-Mar-26 19:30N 34°36' E 135°16'0 0.0
2015-Mar-26 18:30N 34°36' E 135°16'0 0.0
2015-Mar-26 17:24N 34°36' E 135°16'0 0.0
2015-Mar-26 16:30N 34°36' E 135°16'0 0.0
2015-Mar-26 15:30N 34°36' E 135°16'0 0.1
2015-Mar-26 14:18N 34°36' E 135°16'0 0.0
2015-Mar-26 13:30N 34°36' E 135°16'0 0.0
2015-Mar-26 12:24N 34°36' E 135°16'0 0.0
2015-Mar-26 11:24N 34°36' E 135°16'0 0.0
2015-Mar-26 10:30N 34°36' E 135°16'0 0.1
2015-Mar-26 09:30N 34°36' E 135°16'8 8.8
2015-Mar-26 08:33N 34°35' E 135°06'2019.1
2015-Mar-26 07:31N 34°31' E 134°42'  
2015-Mar-23 07:32N 34°36' E 134°56'1414.4
2015-Mar-23 06:34N 34°37' E 135°13'4 3.9
2015-Mar-23 05:31N 34°41' E 135°13'0 0.0
2015-Mar-23 04:31N 34°41' E 135°13'0 0.0
2015-Mar-23 03:31N 34°41' E 135°13'0 0.0
2015-Mar-23 02:19N 34°41' E 135°13'0 0.0
2015-Mar-23 01:31N 34°41' E 135°13'0 0.0
2015-Mar-23 00:31N 34°41' E 135°13'0 0.0
2015-Mar-22 23:31N 34°41' E 135°13'2 2.4
2015-Mar-22 22:33N 34°39' E 135°16'1514.8
2015-Mar-22 21:33N 34°26' E 135°07'1616.4
2015-Mar-22 20:33N 34°11' E 134°59'1717.3
2015-Mar-22 19:33N 33°54' E 134°60'234 7.8
2015-Mar-21 13:33N 35°00' E 139°32'1414.3
2015-Mar-21 12:34N 35°10' E 139°45'1211.6
2015-Mar-21 11:33N 35°21' E 139°42'10 9.8
2015-Mar-21 10:33N 35°30' E 139°46'0 0.0
2015-Mar-21 09:33N 35°30' E 139°46'0 0.0
2015-Mar-21 08:33N 35°30' E 139°46'0 0.0
2015-Mar-21 07:33N 35°30' E 139°46'0 0.0
2015-Mar-21 06:33N 35°30' E 139°46'0 0.0
2015-Mar-21 05:33N 35°30' E 139°46'0 0.0
2015-Mar-21 04:33N 35°30' E 139°46'6 5.8
2015-Mar-21 03:33N 35°25' E 139°46'8 8.4
2015-Mar-21 02:33N 35°19' E 139°39'0 0.0
2015-Mar-21 01:31N 35°19' E 139°39'0 0.0
2015-Mar-21 00:25N 35°19' E 139°39'0 0.0
2015-Mar-20 23:31N 35°19' E 139°39'0 0.0
2015-Mar-20 22:31N 35°19' E 139°39'7 7.1
2015-Mar-20 21:33N 35°16' E 139°46'1413.6
2015-Mar-20 20:33N 35°03' E 139°41'1413.6
2015-Mar-20 19:33N 34°53' E 139°29'22916.4
2015-Mar-20 05:33N 33°59' E 134°59'2221.1
2015-Mar-20 04:32N 34°21' E 135°00'1919.4
2015-Mar-20 03:33N 34°35' E 135°15'6 5.3
2015-Mar-20 02:28N 34°41' E 135°13'0 0.0
2015-Mar-20 01:22N 34°41' E 135°13'0 0.0
2015-Mar-20 00:28N 34°41' E 135°13'0 0.0
2015-Mar-19 23:33N 34°41' E 135°13'2 2.1
2015-Mar-19 22:33N 34°39' E 135°16'3 2.8
2015-Mar-19 21:28N 34°37' E 135°17'0 0.1
2015-Mar-19 20:28N 34°37' E 135°17'0 0.0
2015-Mar-19 19:28N 34°37' E 135°17'0 0.0
2015-Mar-19 18:28N 34°37' E 135°17'0 0.0
2015-Mar-19 17:28N 34°37' E 135°17'0 0.0
2015-Mar-19 16:22N 34°37' E 135°17'0 0.1
2015-Mar-19 15:28N 34°37' E 135°17'0 0.0
2015-Mar-19 14:22N 34°37' E 135°17'0 0.0
2015-Mar-19 13:16N 34°37' E 135°17'0 0.0
2015-Mar-19 12:16N 34°37' E 135°17'0 0.1
2015-Mar-19 11:28N 34°37' E 135°17'5 5.9
2015-Mar-19 10:34N 34°35' E 135°11'1616.4
2015-Mar-19 09:33N 34°34' E 134°51'  

Dump ship's entire track history